Highland Lake, New York
Current Conditions -  °F | °C
As of 7:35 PM on Wednesday 28 Jan 2015 (Local Time) from KMSV Reporting Station
Clear Clear  
Wind Chill: 10°   Ceiling: Unl
Heat Index: 19°   Visibility: 10mi
Dew Point:   Wind: 7mph
Humidity: 42%   Direction: 290°WNW
Pressure: 30.18"   Gusts: NA
Location:  41.52°N, 74.85°W
Report Text: KMSV 290035Z AUTO 29006KT 10SM CLR M07/M18 A3018 RMK AO1
Loading
Personal Weather Stations






























Interactive Weather Map New forecast layout! Learn more

10-Day Weather Forecast

Advertisements
Track Severe Weather on mobile